Time;durP1;ratioP1;P1;durP2;ratioP2;P2;SDS_P1;SDS_P2;PMS_P1;PMS_P2;Temp;Humidity;BMP_temperature;BMP_pressure;BME280_temperature;BME280_humidity;BME280_pressure;Samples;Min_cycle;Max_cycle;Signal;HPM_P1;HPM_P2
2020/12/03 00:01:01;;;;;;;15.93;12.73;;;;;;;;;;5122688;27;20043;-59
2020/12/03 00:03:30;;;;;;;15.33;11.60;;;;;;;;;;5116270;27;20068;-59
2020/12/03 00:05:56;;;;;;;13.93;11.23;;;;;;;;;;5106108;27;20035;-59
2020/12/03 00:08:22;;;;;;;14.43;11.23;;;;;;;;;;5115265;27;20024;-60
2020/12/03 00:10:48;;;;;;;14.00;10.67;;;;;;;;;;5119037;27;20043;-61
2020/12/03 00:13:16;;;;;;;12.47;11.10;;;;;;;;;;5118459;27;20038;-60
2020/12/03 00:15:42;;;;;;;12.10;10.80;;;;;;;;;;5116652;27;20461;-60
2020/12/03 00:18:08;;;;;;;13.77;11.57;;;;;;;;;;5098034;27;20027;-59
2020/12/03 00:20:35;;;;;;;12.90;10.67;;;;;;;;;;5121281;27;20039;-59
2020/12/03 00:23:01;;;;;;;14.13;10.73;;;;;;;;;;5126236;27;20082;-60
2020/12/03 00:25:27;;;;;;;14.03;11.30;;;;;;;;;;5116631;27;20060;-59
2020/12/03 00:27:55;;;;;;;12.63;10.80;;;;;;;;;;5121361;27;20030;-59
2020/12/03 00:30:21;;;;;;;13.13;10.60;;;;;;;;;;5116042;27;20084;-59
2020/12/03 00:32:49;;;;;;;13.13;10.60;;;;;;;;;;5120132;27;20477;-59
2020/12/03 00:35:15;;;;;;;12.77;10.83;;;;;;;;;;5118243;27;20054;-59
2020/12/03 00:37:42;;;;;;;13.97;11.43;;;;;;;;;;5105470;27;20084;-60
2020/12/03 00:40:08;;;;;;;14.10;12.63;;;;;;;;;;5112273;27;20043;-59
2020/12/03 00:42:34;;;;;;;16.33;12.40;;;;;;;;;;5122171;27;20040;-59
2020/12/03 00:45:00;;;;;;;15.80;12.67;;;;;;;;;;5114696;27;20031;-59
2020/12/03 00:47:26;;;;;;;17.30;14.03;;;;;;;;;;5105088;27;20024;-60
2020/12/03 00:49:52;;;;;;;16.67;13.00;;;;;;;;;;5100351;27;20059;-60
2020/12/03 00:52:18;;;;;;;19.63;14.20;;;;;;;;;;5122215;27;20047;-60
2020/12/03 00:54:44;;;;;;;21.13;15.53;;;;;;;;;;5123591;27;20046;-60
2020/12/03 00:57:11;;;;;;;19.93;15.37;;;;;;;;;;5127278;27;20023;-60
2020/12/03 00:59:40;;;;;;;23.23;16.70;;;;;;;;;;5118465;27;20068;-60
2020/12/03 01:02:14;;;;;;;24.03;16.57;;;;;;;;;;5122197;27;20408;-60
2020/12/03 01:04:41;;;;;;;25.53;17.87;;;;;;;;;;5124604;27;20020;-60
2020/12/03 01:07:07;;;;;;;23.17;15.90;;;;;;;;;;5123999;27;20299;-60
2020/12/03 01:09:36;;;;;;;24.50;17.37;;;;;;;;;;5119593;27;20026;-60
2020/12/03 01:12:03;;;;;;;25.33;17.33;;;;;;;;;;5118763;27;20055;-60
2020/12/03 01:14:29;;;;;;;28.30;18.80;;;;;;;;;;5117444;27;20077;-60
2020/12/03 01:16:55;;;;;;;24.10;15.87;;;;;;;;;;5128095;27;20031;-60
2020/12/03 01:19:21;;;;;;;26.53;18.37;;;;;;;;;;5119857;27;20069;-60
2020/12/03 01:21:47;;;;;;;32.50;18.60;;;;;;;;;;5120301;27;20502;-60
2020/12/03 01:24:13;;;;;;;33.50;19.63;;;;;;;;;;5121795;27;20032;-60
2020/12/03 01:26:39;;;;;;;35.47;20.90;;;;;;;;;;5123516;27;20437;-60
2020/12/03 01:29:05;;;;;;;34.67;19.13;;;;;;;;;;5123887;27;20023;-60
2020/12/03 01:31:31;;;;;;;36.00;21.60;;;;;;;;;;5123044;27;20429;-60
2020/12/03 01:33:58;;;;;;;31.57;20.13;;;;;;;;;;5125890;27;20023;-60
2020/12/03 01:36:24;;;;;;;30.43;19.90;;;;;;;;;;5124439;27;20023;-60
2020/12/03 01:38:50;;;;;;;39.60;22.00;;;;;;;;;;5125572;27;20023;-60
2020/12/03 01:41:16;;;;;;;44.03;22.27;;;;;;;;;;5101927;27;20031;-60
2020/12/03 01:43:43;;;;;;;40.57;22.17;;;;;;;;;;5123261;27;20016;-60
2020/12/03 01:46:09;;;;;;;37.50;22.60;;;;;;;;;;5106955;27;20035;-60
2020/12/03 01:48:35;;;;;;;40.03;22.43;;;;;;;;;;5117979;27;20538;-60
2020/12/03 01:51:02;;;;;;;39.07;21.40;;;;;;;;;;5126517;27;20038;-60
2020/12/03 01:53:28;;;;;;;41.13;23.17;;;;;;;;;;5104897;27;20515;-60
2020/12/03 01:55:54;;;;;;;45.10;24.50;;;;;;;;;;5125082;27;20087;-59
2020/12/03 01:58:32;;;;;;;38.93;20.57;;;;;;;;;;5120181;27;20050;-59
2020/12/03 02:00:59;;;;;;;44.97;21.80;;;;;;;;;;5126447;27;20408;-60
2020/12/03 02:03:25;;;;;;;37.43;21.93;;;;;;;;;;5121765;27;20027;-60
2020/12/03 02:05:51;;;;;;;36.13;20.63;;;;;;;;;;5126734;27;20031;-60
2020/12/03 02:08:17;;;;;;;34.53;20.87;;;;;;;;;;5121599;27;20023;-60
2020/12/03 02:10:43;;;;;;;35.57;21.27;;;;;;;;;;5122397;27;20061;-60
2020/12/03 02:13:09;;;;;;;33.17;20.27;;;;;;;;;;5101799;27;20024;-59
2020/12/03 02:15:36;;;;;;;40.07;22.00;;;;;;;;;;5124639;27;20477;-60
2020/12/03 02:18:04;;;;;;;38.33;22.50;;;;;;;;;;5117778;27;20035;-60
2020/12/03 02:20:30;;;;;;;44.80;23.13;;;;;;;;;;5109172;27;20039;-60
2020/12/03 02:22:56;;;;;;;39.10;21.13;;;;;;;;;;5098183;27;20055;-60
2020/12/03 02:25:22;;;;;;;38.43;21.80;;;;;;;;;;5123719;27;20020;-59
2020/12/03 02:27:48;;;;;;;38.07;20.87;;;;;;;;;;5123496;27;20106;-59
2020/12/03 02:30:14;;;;;;;33.13;19.40;;;;;;;;;;5119230;27;20055;-59
2020/12/03 02:32:41;;;;;;;31.33;18.40;;;;;;;;;;5123972;27;20030;-59
2020/12/03 02:35:08;;;;;;;31.13;18.27;;;;;;;;;;5119742;27;20079;-59
2020/12/03 02:37:34;;;;;;;36.40;21.33;;;;;;;;;;5125094;27;20062;-60
2020/12/03 02:40:01;;;;;;;31.90;20.03;;;;;;;;;;5124601;27;20030;-59
2020/12/03 02:42:27;;;;;;;27.43;19.47;;;;;;;;;;5120693;27;20065;-60
2020/12/03 02:44:53;;;;;;;29.53;18.83;;;;;;;;;;5119567;27;20134;-60
2020/12/03 02:47:21;;;;;;;28.00;18.43;;;;;;;;;;5122975;27;20064;-60
2020/12/03 02:49:48;;;;;;;32.27;20.27;;;;;;;;;;5120027;27;20026;-61
2020/12/03 02:52:15;;;;;;;33.03;20.80;;;;;;;;;;5123612;27;20031;-60
2020/12/03 02:54:42;;;;;;;33.40;20.40;;;;;;;;;;5116774;27;20434;-60
2020/12/03 02:57:09;;;;;;;30.33;20.13;;;;;;;;;;5130592;27;20481;-60
2020/12/03 02:59:35;;;;;;;30.33;19.40;;;;;;;;;;5117398;27;21607;-60
2020/12/03 03:02:01;;;;;;;32.97;19.03;;;;;;;;;;5127456;27;20034;-60
2020/12/03 03:04:27;;;;;;;27.57;19.23;;;;;;;;;;5125138;27;20023;-60
2020/12/03 03:06:53;;;;;;;29.07;19.07;;;;;;;;;;5125448;27;20052;-60
2020/12/03 03:09:19;;;;;;;33.23;19.60;;;;;;;;;;5122016;27;20023;-61
2020/12/03 03:11:45;;;;;;;33.43;20.13;;;;;;;;;;5103653;27;20072;-60
2020/12/03 03:14:11;;;;;;;34.60;21.67;;;;;;;;;;5120268;27;20031;-60
2020/12/03 03:16:37;;;;;;;33.57;20.73;;;;;;;;;;5123106;27;20157;-61
2020/12/03 03:19:04;;;;;;;36.27;22.30;;;;;;;;;;5104515;27;20110;-61
2020/12/03 03:21:30;;;;;;;35.03;20.00;;;;;;;;;;5105003;27;20050;-61
2020/12/03 03:23:56;;;;;;;39.23;21.40;;;;;;;;;;5119251;27;20026;-60
2020/12/03 03:26:22;;;;;;;33.93;20.33;;;;;;;;;;5119301;27;20031;-60
2020/12/03 03:28:49;;;;;;;38.43;22.00;;;;;;;;;;5129403;27;20373;-60
2020/12/03 03:31:15;;;;;;;38.10;20.50;;;;;;;;;;5118752;27;20114;-60
2020/12/03 03:33:41;;;;;;;35.60;20.63;;;;;;;;;;5128637;27;20043;-60
2020/12/03 03:36:07;;;;;;;34.37;20.10;;;;;;;;;;5122156;27;20027;-61
2020/12/03 03:38:33;;;;;;;34.90;21.17;;;;;;;;;;5105733;27;20065;-60
2020/12/03 03:40:59;;;;;;;39.00;20.83;;;;;;;;;;5115804;27;20760;-61
2020/12/03 03:43:25;;;;;;;36.60;21.73;;;;;;;;;;5119474;27;20025;-61
2020/12/03 03:45:52;;;;;;;36.40;20.53;;;;;;;;;;5114422;27;20035;-61
2020/12/03 03:48:17;;;;;;;35.63;19.70;;;;;;;;;;5120906;27;20027;-61
2020/12/03 03:50:43;;;;;;;35.70;20.50;;;;;;;;;;5117331;27;20358;-61
2020/12/03 03:53:10;;;;;;;40.03;18.67;;;;;;;;;;5120627;27;20027;-61
2020/12/03 03:55:36;;;;;;;38.37;20.07;;;;;;;;;;5121254;27;20020;-59
2020/12/03 03:58:07;;;;;;;46.20;20.40;;;;;;;;;;5120803;27;20048;-59
2020/12/03 04:00:33;;;;;;;52.10;22.07;;;;;;;;;;5120427;27;20028;-59
2020/12/03 04:02:59;;;;;;;39.70;19.90;;;;;;;;;;5116586;27;20019;-59
2020/12/03 04:05:25;;;;;;;44.63;20.93;;;;;;;;;;5122671;27;20023;-60
2020/12/03 04:07:51;;;;;;;34.27;18.37;;;;;;;;;;5113461;27;20023;-60
2020/12/03 04:10:17;;;;;;;38.93;19.27;;;;;;;;;;5117642;27;20123;-59
2020/12/03 04:12:43;;;;;;;36.30;20.50;;;;;;;;;;5120047;27;20093;-59
2020/12/03 04:15:09;;;;;;;40.63;20.23;;;;;;;;;;5126472;27;20130;-59
2020/12/03 04:17:36;;;;;;;34.00;18.70;;;;;;;;;;5115908;27;20027;-58
2020/12/03 04:20:04;;;;;;;35.23;19.40;;;;;;;;;;5122791;27;20047;-59
2020/12/03 04:22:30;;;;;;;36.27;18.37;;;;;;;;;;5117702;27;20087;-58
2020/12/03 04:24:56;;;;;;;33.70;17.50;;;;;;;;;;5120300;27;20058;-61
2020/12/03 04:27:22;;;;;;;34.83;18.50;;;;;;;;;;5123969;27;21263;-59
2020/12/03 04:30:07;;;;;;;35.30;18.60;;;;;;;;;;5121636;27;20025;-59
2020/12/03 04:32:33;;;;;;;32.90;17.83;;;;;;;;;;5119654;27;20383;-59
2020/12/03 04:34:59;;;;;;;34.23;16.93;;;;;;;;;;5118944;27;20020;-59
2020/12/03 04:37:25;;;;;;;38.10;19.00;;;;;;;;;;5123396;27;20035;-60
2020/12/03 04:39:51;;;;;;;43.77;19.50;;;;;;;;;;5120582;27;20031;-59
2020/12/03 04:42:22;;;;;;;37.17;20.00;;;;;;;;;;5121253;27;20036;-59
2020/12/03 04:44:49;;;;;;;34.20;18.83;;;;;;;;;;5122009;27;20103;-59
2020/12/03 04:47:41;;;;;;;35.57;18.77;;;;;;;;;;5127708;27;20480;-59
2020/12/03 04:50:12;;;;;;;35.40;18.83;;;;;;;;;;5117092;27;20036;-59
2020/12/03 04:52:38;;;;;;;35.77;19.87;;;;;;;;;;5123213;27;20156;-59
2020/12/03 04:55:14;;;;;;;39.23;20.37;;;;;;;;;;5119634;27;20019;-59
2020/12/03 04:57:45;;;;;;;38.47;19.83;;;;;;;;;;5125539;27;20024;-59
2020/12/03 05:00:17;;;;;;;34.03;19.70;;;;;;;;;;5119804;27;20035;-59
2020/12/03 05:02:58;;;;;;;45.07;22.00;;;;;;;;;;5121630;27;20473;-59
2020/12/03 05:05:27;;;;;;;38.97;19.77;;;;;;;;;;5117301;27;20027;-59
2020/12/03 05:08:03;;;;;;;43.27;20.97;;;;;;;;;;5121145;27;20023;-59
2020/12/03 05:10:35;;;;;;;40.10;21.80;;;;;;;;;;5116112;27;20084;-59
2020/12/03 05:13:01;;;;;;;39.73;20.77;;;;;;;;;;5120133;27;20126;-59
2020/12/03 05:15:34;;;;;;;39.03;20.77;;;;;;;;;;5115146;27;20035;-59
2020/12/03 05:18:18;;;;;;;34.13;17.57;;;;;;;;;;5122163;27;20023;-61
2020/12/03 05:20:44;;;;;;;39.73;21.07;;;;;;;;;;5117435;27;20058;-60
2020/12/03 05:23:16;;;;;;;38.53;21.10;;;;;;;;;;5120357;27;20261;-60
2020/12/03 05:25:42;;;;;;;33.90;17.97;;;;;;;;;;5112308;27;20098;-60
2020/12/03 05:28:24;;;;;;;34.20;18.53;;;;;;;;;;5119195;27;20028;-60
2020/12/03 05:30:52;;;;;;;33.27;18.33;;;;;;;;;;5098131;28;20384;-60
2020/12/03 05:33:18;;;;;;;33.43;18.27;;;;;;;;;;5118628;27;20512;-60
2020/12/03 05:35:45;;;;;;;33.27;16.90;;;;;;;;;;5119670;27;20019;-60
2020/12/03 05:38:16;;;;;;;32.53;17.83;;;;;;;;;;5120679;27;20031;-60
2020/12/03 05:40:45;;;;;;;30.80;17.73;;;;;;;;;;5122121;27;20059;-60
2020/12/03 05:43:11;;;;;;;33.50;19.33;;;;;;;;;;5121148;27;20020;-60
2020/12/03 05:45:38;;;;;;;29.50;16.37;;;;;;;;;;5122481;27;20425;-61
2020/12/03 05:48:04;;;;;;;27.73;16.33;;;;;;;;;;5121710;27;20043;-60
2020/12/03 05:50:36;;;;;;;32.73;17.77;;;;;;;;;;5108588;27;20138;-60
2020/12/03 05:53:12;;;;;;;30.83;18.33;;;;;;;;;;5121810;27;20035;-60
2020/12/03 05:55:38;;;;;;;27.87;16.20;;;;;;;;;;5117738;27;20023;-61
2020/12/03 05:58:17;;;;;;;32.57;17.90;;;;;;;;;;5120721;27;20040;-60
2020/12/03 06:00:44;;;;;;;27.93;16.10;;;;;;;;;;5120135;27;20118;-60
2020/12/03 06:03:28;;;;;;;36.13;18.80;;;;;;;;;;5120254;27;20027;-60
2020/12/03 06:06:05;;;;;;;33.30;18.48;;;;;;;;;;5119313;27;20031;-60
2020/12/03 06:08:50;;;;;;;35.03;17.80;;;;;;;;;;5118628;27;20019;-60
2020/12/03 06:11:35;;;;;;;30.77;19.05;;;;;;;;;;5124231;27;20087;-60
2020/12/03 06:14:19;;;;;;;31.55;17.95;;;;;;;;;;5115591;27;20034;-61
2020/12/03 06:16:52;;;;;;;31.10;17.67;;;;;;;;;;5125214;27;20080;-60
2020/12/03 06:19:27;;;;;;;33.70;16.97;;;;;;;;;;5118874;27;20031;-60
2020/12/03 06:22:06;;;;;;;36.53;19.20;;;;;;;;;;5118871;27;20092;-60
2020/12/03 06:24:32;;;;;;;32.40;18.73;;;;;;;;;;5122362;27;20036;-60
2020/12/03 06:27:04;;;;;;;32.90;17.83;;;;;;;;;;5124280;27;20027;-60
2020/12/03 06:29:30;;;;;;;31.83;18.23;;;;;;;;;;5122284;27;20069;-60
2020/12/03 06:32:02;;;;;;;25.90;16.30;;;;;;;;;;5123964;27;20438;-60
2020/12/03 06:34:41;;;;;;;27.27;16.93;;;;;;;;;;5115581;27;20027;-61
2020/12/03 06:37:15;;;;;;;37.47;18.73;;;;;;;;;;5122332;27;20468;-60
2020/12/03 06:39:50;;;;;;;30.50;18.47;;;;;;;;;;5122815;27;20023;-60
2020/12/03 06:42:35;;;;;;;31.43;17.77;;;;;;;;;;5110211;27;20639;-60
2020/12/03 06:45:10;;;;;;;30.98;17.38;;;;;;;;;;5098169;27;20050;-60
2020/12/03 06:47:55;;;;;;;32.93;17.27;;;;;;;;;;5119773;27;20063;-60
2020/12/03 06:50:39;;;;;;;30.25;18.40;;;;;;;;;;5118095;27;20121;-60
2020/12/03 06:53:24;;;;;;;31.17;17.48;;;;;;;;;;5118711;27;20321;-60
2020/12/03 06:56:22;;;;;;;37.20;19.05;;;;;;;;;;5123157;27;20027;-60
2020/12/03 06:58:57;;;;;;;33.17;19.23;;;;;;;;;;5038460;28;20055;-60
2020/12/03 07:01:26;;;;;;;30.93;19.23;;;;;;;;;;5077175;28;20097;-60
2020/12/03 07:04:10;;;;;;;34.23;19.80;;;;;;;;;;5075645;28;20040;-60
2020/12/03 07:06:55;;;;;;;34.83;21.07;;;;;;;;;;5077813;28;20028;-60
2020/12/03 07:09:33;;;;;;;32.65;20.33;;;;;;;;;;5072342;28;20110;-60
2020/12/03 07:12:05;;;;;;;28.93;20.23;;;;;;;;;;5086191;28;20035;-60
2020/12/03 07:14:34;;;;;;;32.73;19.03;;;;;;;;;;5078806;28;20035;-60
2020/12/03 07:17:09;;;;;;;34.57;19.53;;;;;;;;;;5077067;28;20159;-60
2020/12/03 07:19:55;;;;;;;30.17;18.17;;;;;;;;;;5075957;28;20024;-60
2020/12/03 07:22:29;;;;;;;33.73;19.00;;;;;;;;;;5077935;28;20043;-60
2020/12/03 07:24:56;;;;;;;36.22;20.80;;;;;;;;;;5078511;28;20060;-60
2020/12/03 07:27:34;;;;;;;30.17;18.73;;;;;;;;;;5075233;28;20024;-60
2020/12/03 07:30:06;;;;;;;30.70;19.63;;;;;;;;;;5076747;28;20387;-60
2020/12/03 07:32:32;;;;;;;38.83;21.73;;;;;;;;;;5080681;28;20103;-60
2020/12/03 07:35:04;;;;;;;35.73;20.47;;;;;;;;;;5076569;28;20099;-60
2020/12/03 07:37:50;;;;;;;35.00;20.57;;;;;;;;;;5080774;28;20116;-60
2020/12/03 07:40:19;;;;;;;32.80;19.70;;;;;;;;;;5081733;28;20020;-60
2020/12/03 07:42:45;;;;;;;34.77;20.60;;;;;;;;;;5076321;28;20126;-60
2020/12/03 07:45:31;;;;;;;40.20;21.50;;;;;;;;;;5077225;28;20020;-60
2020/12/03 07:48:15;;;;;;;35.90;22.13;;;;;;;;;;5084015;28;20031;-60
2020/12/03 07:50:49;;;;;;;34.20;21.90;;;;;;;;;;5079714;28;20024;-60
2020/12/03 07:53:15;;;;;;;37.80;20.35;;;;;;;;;;5076254;28;20031;-60
2020/12/03 07:55:41;;;;;;;34.27;20.77;;;;;;;;;;5081498;28;20103;-60
2020/12/03 07:58:27;;;;;;;37.23;21.90;;;;;;;;;;5078592;28;20470;-60
2020/12/03 08:00:53;;;;;;;39.90;22.77;;;;;;;;;;5082760;28;20032;-60
2020/12/03 08:03:39;;;;;;;38.10;22.93;;;;;;;;;;5075984;28;20029;-59
2020/12/03 08:06:08;;;;;;;32.47;20.77;;;;;;;;;;5084303;28;20061;-59
2020/12/03 08:08:35;;;;;;;31.27;19.53;;;;;;;;;;5083253;28;20021;-60
2020/12/03 08:11:01;;;;;;;34.13;21.13;;;;;;;;;;5077291;28;20496;-59
2020/12/03 08:13:32;;;;;;;38.70;22.23;;;;;;;;;;5082018;28;20059;-60
2020/12/03 08:16:03;;;;;;;37.27;21.47;;;;;;;;;;5081743;28;20393;-60
2020/12/03 08:18:35;;;;;;;30.17;19.03;;;;;;;;;;5082305;28;20021;-59
2020/12/03 08:21:01;;;;;;;41.50;22.07;;;;;;;;;;5078775;28;20028;-59
2020/12/03 08:23:27;;;;;;;38.57;22.67;;;;;;;;;;5082191;28;20033;-60
2020/12/03 08:25:53;;;;;;;35.13;22.00;;;;;;;;;;5080231;28;20039;-60
2020/12/03 08:28:22;;;;;;;33.33;21.40;;;;;;;;;;5090987;28;20054;-59
2020/12/03 08:30:51;;;;;;;35.47;23.30;;;;;;;;;;5081171;28;20028;-59
2020/12/03 08:33:24;;;;;;;32.80;20.90;;;;;;;;;;5079583;28;20028;-59
2020/12/03 08:36:12;;;;;;;33.03;22.70;;;;;;;;;;5086801;28;20020;-59
2020/12/03 08:38:41;;;;;;;37.40;23.63;;;;;;;;;;5077431;28;20074;-59
2020/12/03 08:41:14;;;;;;;39.90;23.87;;;;;;;;;;5085694;28;20028;-59
2020/12/03 08:43:48;;;;;;;37.97;24.20;;;;;;;;;;5083632;28;20056;-59
2020/12/03 08:46:21;;;;;;;44.83;24.53;;;;;;;;;;5085571;28;20028;-59
2020/12/03 08:48:47;;;;;;;40.87;24.33;;;;;;;;;;5078466;28;20052;-59
2020/12/03 08:51:14;;;;;;;34.43;23.73;;;;;;;;;;5082860;28;20054;-59
2020/12/03 08:53:51;;;;;;;40.67;25.67;;;;;;;;;;5080083;28;20016;-59
2020/12/03 08:56:24;;;;;;;43.37;26.73;;;;;;;;;;5078397;28;20428;-60
2020/12/03 08:59:01;;;;;;;37.90;24.30;;;;;;;;;;5102579;27;20071;-60
2020/12/03 09:01:47;;;;;;;42.60;24.40;;;;;;;;;;5120059;27;20404;-59
2020/12/03 09:04:16;;;;;;;39.67;25.27;;;;;;;;;;5118304;27;20094;-59
2020/12/03 09:06:48;;;;;;;38.07;24.20;;;;;;;;;;5121382;27;20384;-59
2020/12/03 09:09:17;;;;;;;37.90;23.83;;;;;;;;;;5117942;27;20495;-59
2020/12/03 09:11:43;;;;;;;44.03;28.20;;;;;;;;;;5106100;27;20098;-59
2020/12/03 09:14:09;;;;;;;49.47;28.30;;;;;;;;;;5119309;27;20134;-59
2020/12/03 09:16:35;;;;;;;52.20;29.07;;;;;;;;;;5123654;27;20023;-59
2020/12/03 09:19:01;;;;;;;48.30;28.80;;;;;;;;;;5121525;27;20070;-59
2020/12/03 09:21:29;;;;;;;53.70;27.97;;;;;;;;;;5126148;27;20039;-60
2020/12/03 09:23:56;;;;;;;56.80;32.73;;;;;;;;;;5124502;27;20034;-59
2020/12/03 09:26:26;;;;;;;54.20;30.13;;;;;;;;;;5118902;27;20088;-59
2020/12/03 09:28:52;;;;;;;49.07;28.60;;;;;;;;;;5124549;27;20031;-60
2020/12/03 09:31:19;;;;;;;50.93;30.73;;;;;;;;;;5120572;27;20054;-60
2020/12/03 09:33:45;;;;;;;45.87;29.40;;;;;;;;;;5120062;27;20397;-61
2020/12/03 09:36:15;;;;;;;52.20;27.37;;;;;;;;;;5101415;27;20046;-60
2020/12/03 09:38:41;;;;;;;49.90;29.50;;;;;;;;;;5120900;27;20050;-61
2020/12/03 09:41:08;;;;;;;48.03;27.90;;;;;;;;;;5119539;27;20063;-60
2020/12/03 09:43:35;;;;;;;47.37;27.83;;;;;;;;;;5121215;27;20029;-60
2020/12/03 09:46:06;;;;;;;48.73;27.60;;;;;;;;;;5113991;27;20084;-60
2020/12/03 09:48:32;;;;;;;41.90;26.73;;;;;;;;;;5126201;27;20026;-60
2020/12/03 09:51:03;;;;;;;53.67;28.70;;;;;;;;;;5118106;27;20088;-60
2020/12/03 09:53:29;;;;;;;44.90;27.83;;;;;;;;;;5119676;27;20020;-60
2020/12/03 09:56:00;;;;;;;51.90;28.47;;;;;;;;;;5121271;27;20084;-61
2020/12/03 09:58:26;;;;;;;53.33;30.57;;;;;;;;;;5119141;27;20051;-61
2020/12/03 10:00:53;;;;;;;54.73;30.83;;;;;;;;;;5101703;27;20046;-61
2020/12/03 10:03:30;;;;;;;51.97;29.43;;;;;;;;;;5122722;27;20418;-60
2020/12/03 10:06:02;;;;;;;50.20;29.70;;;;;;;;;;5109277;27;20027;-61
2020/12/03 10:08:34;;;;;;;55.70;31.63;;;;;;;;;;5115370;27;20054;-60
2020/12/03 10:11:19;;;;;;;48.73;28.93;;;;;;;;;;5124952;27;20053;-60
2020/12/03 10:14:04;;;;;;;49.93;29.00;;;;;;;;;;5121699;27;20016;-60
2020/12/03 10:16:32;;;;;;;54.05;30.65;;;;;;;;;;5120758;27;20031;-60
2020/12/03 10:19:02;;;;;;;51.07;29.77;;;;;;;;;;5123031;27;20570;-60
2020/12/03 10:21:29;;;;;;;49.83;31.17;;;;;;;;;;5123189;27;20032;-60
2020/12/03 10:24:03;;;;;;;50.53;30.10;;;;;;;;;;5127570;27;20457;-59
2020/12/03 10:26:34;;;;;;;52.97;28.97;;;;;;;;;;5104241;27;20027;-59
2020/12/03 10:29:18;;;;;;;48.63;31.00;;;;;;;;;;5125355;27;20024;-59
2020/12/03 10:31:45;;;;;;;50.30;29.58;;;;;;;;;;5124264;27;20023;-60
2020/12/03 10:34:12;;;;;;;50.90;29.27;;;;;;;;;;5120022;27;20064;-59
2020/12/03 10:36:48;;;;;;;48.50;29.77;;;;;;;;;;5122197;27;20027;-59
2020/12/03 10:39:16;;;;;;;51.70;31.33;;;;;;;;;;5122921;27;20597;-59
2020/12/03 10:41:43;;;;;;;47.70;29.03;;;;;;;;;;5125120;27;20043;-59
2020/12/03 10:44:15;;;;;;;53.80;29.83;;;;;;;;;;5125226;27;20027;-59
2020/12/03 10:46:44;;;;;;;47.80;29.27;;;;;;;;;;5121992;27;20031;-59
2020/12/03 10:49:15;;;;;;;53.10;30.80;;;;;;;;;;5121659;27;20016;-60
2020/12/03 10:51:41;;;;;;;52.77;31.20;;;;;;;;;;5123238;27;20118;-60
2020/12/03 10:54:07;;;;;;;49.67;29.73;;;;;;;;;;5117217;27;20046;-61
2020/12/03 10:56:36;;;;;;;47.47;29.80;;;;;;;;;;5122281;27;20472;-60
2020/12/03 10:59:12;;;;;;;51.07;28.83;;;;;;;;;;5118648;27;20031;-61
2020/12/03 11:01:38;;;;;;;51.03;28.90;;;;;;;;;;5126559;27;20118;-60
2020/12/03 11:04:09;;;;;;;52.53;31.00;;;;;;;;;;5119830;27;20625;-60
2020/12/03 11:06:35;;;;;;;50.33;30.47;;;;;;;;;;5101280;27;20035;-61
2020/12/03 11:09:02;;;;;;;52.67;29.73;;;;;;;;;;5114994;27;20039;-60
2020/12/03 11:11:36;;;;;;;52.63;31.03;;;;;;;;;;5125206;27;20050;-60
2020/12/03 11:14:02;;;;;;;51.75;29.55;;;;;;;;;;5117042;27;20077;-60
2020/12/03 11:16:32;;;;;;;49.37;28.57;;;;;;;;;;5117779;27;20023;-60
2020/12/03 11:18:59;;;;;;;50.90;29.97;;;;;;;;;;5113410;27;20023;-60
2020/12/03 11:21:30;;;;;;;48.20;30.17;;;;;;;;;;5122631;27;20031;-60
2020/12/03 11:24:01;;;;;;;50.27;29.97;;;;;;;;;;5119389;27;20172;-60
2020/12/03 11:26:28;;;;;;;44.47;28.53;;;;;;;;;;5120816;27;20105;-60
2020/12/03 11:28:54;;;;;;;42.20;26.90;;;;;;;;;;5121531;27;20392;-60
2020/12/03 11:31:30;;;;;;;46.20;28.27;;;;;;;;;;5115460;27;20054;-60
2020/12/03 11:33:56;;;;;;;55.30;31.53;;;;;;;;;;5121511;27;20488;-56
2020/12/03 11:36:22;;;;;;;44.67;26.80;;;;;;;;;;5121263;27;20034;-55
2020/12/03 11:38:56;;;;;;;42.17;26.20;;;;;;;;;;5124631;27;20032;-60
2020/12/03 11:49:23;;;;;;;44.67;28.00;;;;;;;;;;5120518;27;20110;-60
2020/12/03 11:51:49;;;;;;;42.78;26.80;;;;;;;;;;5099546;27;20078;-60
2020/12/03 11:54:15;;;;;;;47.50;28.67;;;;;;;;;;5121076;27;20118;-60
2020/12/03 11:56:41;;;;;;;45.57;27.33;;;;;;;;;;5097283;27;20456;-60
2020/12/03 11:59:13;;;;;;;44.87;27.83;;;;;;;;;;5118720;27;20055;-60
2020/12/03 12:01:39;;;;;;;41.03;25.77;;;;;;;;;;5119888;27;20048;-60
2020/12/03 12:04:10;;;;;;;43.77;27.47;;;;;;;;;;5102945;27;20047;-61
2020/12/03 12:06:47;;;;;;;44.07;28.30;;;;;;;;;;5115441;27;20020;-60
2020/12/03 12:09:20;;;;;;;45.80;28.77;;;;;;;;;;5122672;27;20026;-60
2020/12/03 12:11:46;;;;;;;42.40;28.20;;;;;;;;;;5118072;27;20027;-60
2020/12/03 12:14:13;;;;;;;45.83;28.70;;;;;;;;;;5122278;27;20107;-60
2020/12/03 12:16:41;;;;;;;42.87;27.47;;;;;;;;;;5120820;27;20485;-61
2020/12/03 12:19:07;;;;;;;41.10;26.37;;;;;;;;;;5100121;27;20027;-61
2020/12/03 12:21:35;;;;;;;42.67;27.90;;;;;;;;;;5103098;28;20527;-60
2020/12/03 12:24:01;;;;;;;43.57;27.83;;;;;;;;;;5119653;27;20055;-60
2020/12/03 12:26:28;;;;;;;47.30;29.80;;;;;;;;;;5115379;27;20088;-60
2020/12/03 12:28:54;;;;;;;46.63;29.47;;;;;;;;;;5115978;27;20023;-60
2020/12/03 12:31:21;;;;;;;48.73;30.70;;;;;;;;;;5119541;27;20396;-60
2020/12/03 12:33:47;;;;;;;46.00;28.97;;;;;;;;;;5115925;27;20098;-60
2020/12/03 12:36:13;;;;;;;46.30;31.50;;;;;;;;;;5117752;27;20030;-60
2020/12/03 12:38:39;;;;;;;43.27;28.10;;;;;;;;;;5115926;27;20533;-60
2020/12/03 12:41:05;;;;;;;46.20;30.10;;;;;;;;;;5119878;27;20031;-60
2020/12/03 12:43:31;;;;;;;53.43;33.10;;;;;;;;;;5116218;27;20053;-60
2020/12/03 12:45:57;;;;;;;52.30;33.23;;;;;;;;;;5123810;27;20063;-61
2020/12/03 12:48:23;;;;;;;56.30;34.00;;;;;;;;;;5123675;27;20094;-60
2020/12/03 12:50:49;;;;;;;48.10;32.07;;;;;;;;;;5124609;27;20478;-60
2020/12/03 12:53:15;;;;;;;49.00;32.80;;;;;;;;;;5117042;27;20027;-60
2020/12/03 12:55:41;;;;;;;52.67;33.57;;;;;;;;;;5106297;27;20036;-60
2020/12/03 12:58:07;;;;;;;51.27;31.67;;;;;;;;;;5121848;27;20031;-60
2020/12/03 13:00:33;;;;;;;52.53;32.20;;;;;;;;;;5124476;27;20023;-60
2020/12/03 13:03:00;;;;;;;49.17;31.57;;;;;;;;;;5120808;27;20091;-61
2020/12/03 13:05:26;;;;;;;51.80;33.17;;;;;;;;;;5104892;27;20503;-61
2020/12/03 13:07:52;;;;;;;49.13;30.63;;;;;;;;;;5125663;27;20035;-61
2020/12/03 13:10:18;;;;;;;54.27;31.50;;;;;;;;;;5123276;27;20027;-60
2020/12/03 13:12:44;;;;;;;48.23;30.47;;;;;;;;;;5123175;27;20028;-61
2020/12/03 13:15:10;;;;;;;51.30;32.10;;;;;;;;;;5118759;27;20034;-61
2020/12/03 13:17:37;;;;;;;56.30;34.87;;;;;;;;;;5120076;27;20032;-61
2020/12/03 13:20:03;;;;;;;52.87;32.23;;;;;;;;;;5117451;27;20092;-61
2020/12/03 13:22:29;;;;;;;50.77;32.13;;;;;;;;;;5124589;27;20035;-60
2020/12/03 13:24:55;;;;;;;50.73;30.67;;;;;;;;;;5118749;27;20725;-61
2020/12/03 13:27:21;;;;;;;46.60;29.73;;;;;;;;;;5125337;27;20072;-60
2020/12/03 13:29:47;;;;;;;49.17;30.07;;;;;;;;;;5118438;27;20031;-61
2020/12/03 13:32:13;;;;;;;44.63;30.03;;;;;;;;;;5123062;27;20970;-60
2020/12/03 13:34:39;;;;;;;43.03;28.17;;;;;;;;;;5122405;27;20118;-60
2020/12/03 13:37:05;;;;;;;45.63;29.43;;;;;;;;;;5123121;27;20115;-61
2020/12/03 13:39:32;;;;;;;44.43;29.40;;;;;;;;;;5100103;27;20388;-60
2020/12/03 13:41:58;;;;;;;39.13;27.73;;;;;;;;;;5119597;27;20039;-61
2020/12/03 13:44:24;;;;;;;41.40;29.10;;;;;;;;;;5122187;27;20050;-61
2020/12/03 13:46:50;;;;;;;49.13;29.40;;;;;;;;;;5128221;27;20055;-61
2020/12/03 13:49:16;;;;;;;43.87;28.90;;;;;;;;;;5101936;27;20059;-61
2020/12/03 13:51:43;;;;;;;46.83;30.77;;;;;;;;;;5119237;27;20396;-60
2020/12/03 13:54:09;;;;;;;45.33;29.43;;;;;;;;;;5105175;27;20564;-61
2020/12/03 13:56:36;;;;;;;49.77;30.23;;;;;;;;;;5119292;27;20445;-60
2020/12/03 13:59:02;;;;;;;38.87;28.00;;;;;;;;;;5125781;27;20460;-60
2020/12/03 14:01:29;;;;;;;50.87;30.40;;;;;;;;;;5111001;27;20035;-61
2020/12/03 14:03:55;;;;;;;44.80;30.57;;;;;;;;;;5122488;27;20016;-60
2020/12/03 14:06:21;;;;;;;43.30;28.63;;;;;;;;;;5117371;27;20484;-61
2020/12/03 14:08:50;;;;;;;41.83;27.93;;;;;;;;;;5121963;27;20079;-61
2020/12/03 14:11:16;;;;;;;45.97;29.73;;;;;;;;;;5118217;27;20115;-61
2020/12/03 14:13:42;;;;;;;47.70;29.93;;;;;;;;;;5122971;27;20131;-60
2020/12/03 14:16:08;;;;;;;44.87;30.30;;;;;;;;;;5106779;27;20050;-61
2020/12/03 14:18:37;;;;;;;39.37;27.80;;;;;;;;;;5123180;27;20106;-61
2020/12/03 14:21:04;;;;;;;45.27;28.20;;;;;;;;;;5116055;27;20563;-61
2020/12/03 14:23:30;;;;;;;45.37;29.40;;;;;;;;;;5118030;27;20019;-60
2020/12/03 14:25:56;;;;;;;43.93;28.60;;;;;;;;;;5126130;27;20031;-60
2020/12/03 14:28:22;;;;;;;43.70;29.10;;;;;;;;;;5106674;28;20026;-61
2020/12/03 14:30:48;;;;;;;46.07;30.97;;;;;;;;;;5104908;27;20088;-60
2020/12/03 14:33:14;;;;;;;38.47;27.47;;;;;;;;;;5124561;27;20027;-60
2020/12/03 14:35:40;;;;;;;46.03;30.23;;;;;;;;;;5112499;27;20023;-60